sensor_id;sensor_type;location;lat;lon;timestamp;P1;durP1;ratioP1;P2;durP2;ratioP2
20034;SDS011;10178;48.034;9.800;2023-08-01T00:00:12;7.10;;;3.50;;
20034;SDS011;10178;48.034;9.800;2023-08-01T00:02:38;6.97;;;2.97;;
20034;SDS011;10178;48.034;9.800;2023-08-01T00:05:04;6.68;;;3.22;;
20034;SDS011;10178;48.034;9.800;2023-08-01T00:07:30;5.60;;;3.10;;
20034;SDS011;10178;48.034;9.800;2023-08-01T00:09:55;5.47;;;2.90;;
20034;SDS011;10178;48.034;9.800;2023-08-01T00:12:21;6.28;;;3.25;;
20034;SDS011;10178;48.034;9.800;2023-08-01T00:14:49;5.60;;;2.90;;
20034;SDS011;10178;48.034;9.800;2023-08-01T00:17:15;6.35;;;3.33;;
20034;SDS011;10178;48.034;9.800;2023-08-01T00:19:41;4.80;;;3.47;;
20034;SDS011;10178;48.034;9.800;2023-08-01T00:22:06;3.78;;;2.65;;
20034;SDS011;10178;48.034;9.800;2023-08-01T00:24:32;4.03;;;3.13;;
20034;SDS011;10178;48.034;9.800;2023-08-01T00:26:57;6.82;;;3.63;;
20034;SDS011;10178;48.034;9.800;2023-08-01T00:29:23;5.50;;;3.17;;
20034;SDS011;10178;48.034;9.800;2023-08-01T00:31:48;7.05;;;3.13;;
20034;SDS011;10178;48.034;9.800;2023-08-01T00:34:14;5.10;;;3.15;;
20034;SDS011;10178;48.034;9.800;2023-08-01T00:36:40;5.75;;;3.15;;
20034;SDS011;10178;48.034;9.800;2023-08-01T00:39:05;5.32;;;3.28;;
20034;SDS011;10178;48.034;9.800;2023-08-01T00:41:31;4.95;;;2.80;;
20034;SDS011;10178;48.034;9.800;2023-08-01T00:43:57;7.43;;;3.30;;
20034;SDS011;10178;48.034;9.800;2023-08-01T00:46:22;5.30;;;3.10;;
20034;SDS011;10178;48.034;9.800;2023-08-01T00:48:49;7.45;;;3.50;;
20034;SDS011;10178;48.034;9.800;2023-08-01T00:51:14;8.15;;;3.30;;
20034;SDS011;10178;48.034;9.800;2023-08-01T00:53:42;9.20;;;3.25;;
20034;SDS011;10178;48.034;9.800;2023-08-01T00:56:10;4.38;;;3.13;;
20034;SDS011;10178;48.034;9.800;2023-08-01T00:58:36;6.78;;;3.70;;
20034;SDS011;10178;48.034;9.800;2023-08-01T01:01:01;7.65;;;2.90;;
20034;SDS011;10178;48.034;9.800;2023-08-01T01:03:28;11.40;;;4.00;;
20034;SDS011;10178;48.034;9.800;2023-08-01T01:06:01;4.32;;;2.90;;
20034;SDS011;10178;48.034;9.800;2023-08-01T01:08:36;7.05;;;2.75;;
20034;SDS011;10178;48.034;9.800;2023-08-01T01:11:01;3.08;;;2.53;;
20034;SDS011;10178;48.034;9.800;2023-08-01T01:13:29;4.32;;;2.75;;
20034;SDS011;10178;48.034;9.800;2023-08-01T01:15:55;3.75;;;2.97;;
20034;SDS011;10178;48.034;9.800;2023-08-01T01:18:20;5.20;;;2.97;;
20034;SDS011;10178;48.034;9.800;2023-08-01T01:20:46;3.88;;;2.88;;
20034;SDS011;10178;48.034;9.800;2023-08-01T01:23:11;4.78;;;2.90;;
20034;SDS011;10178;48.034;9.800;2023-08-01T01:25:37;4.53;;;3.00;;
20034;SDS011;10178;48.034;9.800;2023-08-01T01:28:05;5.28;;;3.03;;
20034;SDS011;10178;48.034;9.800;2023-08-01T01:30:32;7.47;;;3.25;;
20034;SDS011;10178;48.034;9.800;2023-08-01T01:32:58;6.72;;;2.97;;
20034;SDS011;10178;48.034;9.800;2023-08-01T01:35:25;5.28;;;3.13;;
20034;SDS011;10178;48.034;9.800;2023-08-01T01:37:50;4.43;;;2.65;;
20034;SDS011;10178;48.034;9.800;2023-08-01T01:40:16;4.78;;;2.88;;
20034;SDS011;10178;48.034;9.800;2023-08-01T01:42:42;6.43;;;3.00;;
20034;SDS011;10178;48.034;9.800;2023-08-01T01:45:07;4.82;;;2.75;;
20034;SDS011;10178;48.034;9.800;2023-08-01T01:47:33;4.20;;;2.70;;
20034;SDS011;10178;48.034;9.800;2023-08-01T01:49:59;2.97;;;2.70;;
20034;SDS011;10178;48.034;9.800;2023-08-01T01:52:24;4.07;;;2.67;;
20034;SDS011;10178;48.034;9.800;2023-08-01T01:54:50;4.70;;;2.50;;
20034;SDS011;10178;48.034;9.800;2023-08-01T01:57:15;4.55;;;3.28;;
20034;SDS011;10178;48.034;9.800;2023-08-01T01:59:41;4.60;;;3.13;;
20034;SDS011;10178;48.034;9.800;2023-08-01T02:02:07;4.07;;;2.85;;
20034;SDS011;10178;48.034;9.800;2023-08-01T02:04:32;3.20;;;2.65;;
20034;SDS011;10178;48.034;9.800;2023-08-01T02:06:58;7.38;;;3.25;;
20034;SDS011;10178;48.034;9.800;2023-08-01T02:09:23;10.73;;;3.70;;
20034;SDS011;10178;48.034;9.800;2023-08-01T02:11:49;6.50;;;3.55;;
20034;SDS011;10178;48.034;9.800;2023-08-01T02:14:15;5.03;;;3.70;;
20034;SDS011;10178;48.034;9.800;2023-08-01T02:16:41;6.88;;;4.20;;
20034;SDS011;10178;48.034;9.800;2023-08-01T02:19:06;7.93;;;4.18;;
20034;SDS011;10178;48.034;9.800;2023-08-01T02:21:32;5.22;;;4.22;;
20034;SDS011;10178;48.034;9.800;2023-08-01T02:23:57;7.35;;;4.25;;
20034;SDS011;10178;48.034;9.800;2023-08-01T02:26:23;8.25;;;4.47;;
20034;SDS011;10178;48.034;9.800;2023-08-01T02:28:49;3.88;;;3.35;;
20034;SDS011;10178;48.034;9.800;2023-08-01T02:31:15;3.38;;;2.92;;
20034;SDS011;10178;48.034;9.800;2023-08-01T02:33:42;2.92;;;2.63;;
20034;SDS011;10178;48.034;9.800;2023-08-01T02:36:07;5.65;;;3.05;;
20034;SDS011;10178;48.034;9.800;2023-08-01T02:38:33;4.40;;;2.92;;
20034;SDS011;10178;48.034;9.800;2023-08-01T02:40:59;3.95;;;2.80;;
20034;SDS011;10178;48.034;9.800;2023-08-01T02:43:24;4.85;;;3.10;;
20034;SDS011;10178;48.034;9.800;2023-08-01T02:45:50;3.55;;;2.97;;
20034;SDS011;10178;48.034;9.800;2023-08-01T02:48:16;3.10;;;2.80;;
20034;SDS011;10178;48.034;9.800;2023-08-01T02:50:41;4.82;;;2.80;;
20034;SDS011;10178;48.034;9.800;2023-08-01T02:53:07;2.75;;;2.55;;
20034;SDS011;10178;48.034;9.800;2023-08-01T02:55:32;3.58;;;3.03;;
20034;SDS011;10178;48.034;9.800;2023-08-01T02:57:58;4.18;;;3.17;;
20034;SDS011;10178;48.034;9.800;2023-08-01T03:00:24;5.93;;;3.83;;
20034;SDS011;10178;48.034;9.800;2023-08-01T03:02:50;7.55;;;4.22;;
20034;SDS011;10178;48.034;9.800;2023-08-01T03:05:16;7.40;;;4.80;;
20034;SDS011;10178;48.034;9.800;2023-08-01T03:07:42;7.07;;;4.78;;
20034;SDS011;10178;48.034;9.800;2023-08-01T03:10:08;8.38;;;4.47;;
20034;SDS011;10178;48.034;9.800;2023-08-01T03:12:36;5.63;;;3.65;;
20034;SDS011;10178;48.034;9.800;2023-08-01T03:15:02;7.88;;;4.50;;
20034;SDS011;10178;48.034;9.800;2023-08-01T03:17:28;7.00;;;3.83;;
20034;SDS011;10178;48.034;9.800;2023-08-01T03:19:53;8.00;;;3.85;;
20034;SDS011;10178;48.034;9.800;2023-08-01T03:22:19;8.07;;;4.35;;
20034;SDS011;10178;48.034;9.800;2023-08-01T03:24:45;3.58;;;3.00;;
20034;SDS011;10178;48.034;9.800;2023-08-01T03:27:10;4.30;;;3.30;;
20034;SDS011;10178;48.034;9.800;2023-08-01T03:29:36;3.53;;;3.10;;
20034;SDS011;10178;48.034;9.800;2023-08-01T03:32:02;3.70;;;2.75;;
20034;SDS011;10178;48.034;9.800;2023-08-01T03:34:27;5.28;;;2.70;;
20034;SDS011;10178;48.034;9.800;2023-08-01T03:36:53;3.25;;;2.65;;
20034;SDS011;10178;48.034;9.800;2023-08-01T03:39:19;3.80;;;3.00;;
20034;SDS011;10178;48.034;9.800;2023-08-01T03:41:45;5.13;;;3.60;;
20034;SDS011;10178;48.034;9.800;2023-08-01T03:44:11;5.43;;;3.53;;
20034;SDS011;10178;48.034;9.800;2023-08-01T03:46:36;5.40;;;3.50;;
20034;SDS011;10178;48.034;9.800;2023-08-01T03:49:02;4.65;;;3.25;;
20034;SDS011;10178;48.034;9.800;2023-08-01T03:51:27;3.40;;;3.10;;
20034;SDS011;10178;48.034;9.800;2023-08-01T03:53:53;4.72;;;2.83;;
20034;SDS011;10178;48.034;9.800;2023-08-01T03:56:18;4.75;;;3.30;;
20034;SDS011;10178;48.034;9.800;2023-08-01T03:58:44;8.07;;;4.22;;
20034;SDS011;10178;48.034;9.800;2023-08-01T04:01:09;6.22;;;4.15;;
20034;SDS011;10178;48.034;9.800;2023-08-01T04:03:36;7.05;;;3.72;;
20034;SDS011;10178;48.034;9.800;2023-08-01T04:06:02;6.32;;;3.65;;
20034;SDS011;10178;48.034;9.800;2023-08-01T04:08:28;8.52;;;4.45;;
20034;SDS011;10178;48.034;9.800;2023-08-01T04:10:53;5.20;;;3.40;;
20034;SDS011;10178;48.034;9.800;2023-08-01T04:13:19;4.55;;;3.65;;
20034;SDS011;10178;48.034;9.800;2023-08-01T04:15:45;5.85;;;3.88;;
20034;SDS011;10178;48.034;9.800;2023-08-01T04:18:10;3.97;;;3.33;;
20034;SDS011;10178;48.034;9.800;2023-08-01T04:20:36;8.27;;;3.83;;
20034;SDS011;10178;48.034;9.800;2023-08-01T04:23:01;5.45;;;3.40;;
20034;SDS011;10178;48.034;9.800;2023-08-01T04:25:27;7.30;;;3.53;;
20034;SDS011;10178;48.034;9.800;2023-08-01T04:27:53;7.15;;;4.55;;
20034;SDS011;10178;48.034;9.800;2023-08-01T04:30:18;5.03;;;3.55;;
20034;SDS011;10178;48.034;9.800;2023-08-01T04:32:44;6.72;;;3.95;;
20034;SDS011;10178;48.034;9.800;2023-08-01T04:35:10;6.55;;;3.80;;
20034;SDS011;10178;48.034;9.800;2023-08-01T04:37:35;4.78;;;3.47;;
20034;SDS011;10178;48.034;9.800;2023-08-01T04:40:01;5.88;;;4.10;;
20034;SDS011;10178;48.034;9.800;2023-08-01T04:42:28;4.30;;;3.70;;
20034;SDS011;10178;48.034;9.800;2023-08-01T04:44:54;7.32;;;4.22;;
20034;SDS011;10178;48.034;9.800;2023-08-01T04:47:20;6.43;;;3.78;;
20034;SDS011;10178;48.034;9.800;2023-08-01T04:49:46;4.35;;;3.60;;
20034;SDS011;10178;48.034;9.800;2023-08-01T04:52:12;5.32;;;4.07;;
20034;SDS011;10178;48.034;9.800;2023-08-01T04:54:37;4.68;;;4.00;;
20034;SDS011;10178;48.034;9.800;2023-08-01T04:57:03;4.25;;;3.85;;
20034;SDS011;10178;48.034;9.800;2023-08-01T04:59:29;5.45;;;4.65;;
20034;SDS011;10178;48.034;9.800;2023-08-01T05:01:55;7.93;;;4.20;;
20034;SDS011;10178;48.034;9.800;2023-08-01T05:04:20;5.97;;;3.88;;
20034;SDS011;10178;48.034;9.800;2023-08-01T05:06:46;6.90;;;4.13;;
20034;SDS011;10178;48.034;9.800;2023-08-01T05:09:11;8.65;;;4.28;;
20034;SDS011;10178;48.034;9.800;2023-08-01T05:11:37;7.72;;;4.18;;
20034;SDS011;10178;48.034;9.800;2023-08-01T05:14:03;7.30;;;3.88;;
20034;SDS011;10178;48.034;9.800;2023-08-01T05:16:28;7.43;;;4.47;;
20034;SDS011;10178;48.034;9.800;2023-08-01T05:18:54;6.32;;;4.03;;
20034;SDS011;10178;48.034;9.800;2023-08-01T05:21:19;6.80;;;3.70;;
20034;SDS011;10178;48.034;9.800;2023-08-01T05:23:45;7.25;;;4.25;;
20034;SDS011;10178;48.034;9.800;2023-08-01T05:26:10;8.73;;;4.15;;
20034;SDS011;10178;48.034;9.800;2023-08-01T05:28:36;8.75;;;4.60;;
20034;SDS011;10178;48.034;9.800;2023-08-01T05:31:02;7.63;;;4.80;;
20034;SDS011;10178;48.034;9.800;2023-08-01T05:33:27;6.07;;;4.10;;
20034;SDS011;10178;48.034;9.800;2023-08-01T05:35:53;6.60;;;4.13;;
20034;SDS011;10178;48.034;9.800;2023-08-01T05:38:18;6.30;;;3.80;;
20034;SDS011;10178;48.034;9.800;2023-08-01T05:40:44;6.35;;;3.97;;
20034;SDS011;10178;48.034;9.800;2023-08-01T05:43:10;6.50;;;4.05;;
20034;SDS011;10178;48.034;9.800;2023-08-01T05:45:35;6.20;;;3.85;;
20034;SDS011;10178;48.034;9.800;2023-08-01T05:48:01;6.50;;;3.90;;
20034;SDS011;10178;48.034;9.800;2023-08-01T05:50:27;4.38;;;3.85;;
20034;SDS011;10178;48.034;9.800;2023-08-01T05:52:53;5.82;;;3.60;;
20034;SDS011;10178;48.034;9.800;2023-08-01T05:55:18;6.60;;;4.60;;
20034;SDS011;10178;48.034;9.800;2023-08-01T05:57:44;8.50;;;3.83;;
20034;SDS011;10178;48.034;9.800;2023-08-01T06:00:10;6.13;;;3.97;;
20034;SDS011;10178;48.034;9.800;2023-08-01T06:02:36;4.57;;;3.28;;
20034;SDS011;10178;48.034;9.800;2023-08-01T06:05:02;8.27;;;4.30;;
20034;SDS011;10178;48.034;9.800;2023-08-01T06:07:28;5.30;;;3.90;;
20034;SDS011;10178;48.034;9.800;2023-08-01T06:09:54;5.95;;;3.75;;
20034;SDS011;10178;48.034;9.800;2023-08-01T06:12:20;5.95;;;4.05;;
20034;SDS011;10178;48.034;9.800;2023-08-01T06:14:46;6.53;;;3.70;;
20034;SDS011;10178;48.034;9.800;2023-08-01T06:17:13;6.60;;;3.38;;
20034;SDS011;10178;48.034;9.800;2023-08-01T06:19:38;6.70;;;3.35;;
20034;SDS011;10178;48.034;9.800;2023-08-01T06:22:04;7.90;;;3.58;;
20034;SDS011;10178;48.034;9.800;2023-08-01T06:24:30;6.07;;;3.53;;
20034;SDS011;10178;48.034;9.800;2023-08-01T06:26:55;12.38;;;4.32;;
20034;SDS011;10178;48.034;9.800;2023-08-01T06:29:21;4.95;;;3.42;;
20034;SDS011;10178;48.034;9.800;2023-08-01T06:31:47;9.23;;;3.35;;
20034;SDS011;10178;48.034;9.800;2023-08-01T06:34:12;5.72;;;3.67;;
20034;SDS011;10178;48.034;9.800;2023-08-01T06:36:38;9.27;;;4.03;;
20034;SDS011;10178;48.034;9.800;2023-08-01T06:39:03;6.25;;;4.00;;
20034;SDS011;10178;48.034;9.800;2023-08-01T06:41:29;9.00;;;3.92;;
20034;SDS011;10178;48.034;9.800;2023-08-01T06:43:55;7.18;;;4.38;;
20034;SDS011;10178;48.034;9.800;2023-08-01T06:46:20;7.07;;;3.95;;
20034;SDS011;10178;48.034;9.800;2023-08-01T06:48:46;8.32;;;4.00;;
20034;SDS011;10178;48.034;9.800;2023-08-01T06:51:11;6.00;;;3.72;;
20034;SDS011;10178;48.034;9.800;2023-08-01T06:53:37;8.55;;;3.35;;
20034;SDS011;10178;48.034;9.800;2023-08-01T06:56:03;3.95;;;3.00;;
20034;SDS011;10178;48.034;9.800;2023-08-01T06:58:28;5.53;;;3.05;;
20034;SDS011;10178;48.034;9.800;2023-08-01T07:00:54;6.45;;;3.33;;
20034;SDS011;10178;48.034;9.800;2023-08-01T07:03:20;4.50;;;3.25;;
20034;SDS011;10178;48.034;9.800;2023-08-01T07:05:45;5.45;;;3.20;;
20034;SDS011;10178;48.034;9.800;2023-08-01T07:08:11;6.15;;;3.58;;
20034;SDS011;10178;48.034;9.800;2023-08-01T07:10:36;9.15;;;3.53;;
20034;SDS011;10178;48.034;9.800;2023-08-01T07:13:03;4.93;;;3.00;;
20034;SDS011;10178;48.034;9.800;2023-08-01T07:15:29;6.50;;;3.13;;
20034;SDS011;10178;48.034;9.800;2023-08-01T07:17:56;5.20;;;3.13;;
20034;SDS011;10178;48.034;9.800;2023-08-01T07:20:22;4.40;;;3.38;;
20034;SDS011;10178;48.034;9.800;2023-08-01T07:22:47;4.28;;;2.50;;
20034;SDS011;10178;48.034;9.800;2023-08-01T07:25:13;5.63;;;3.00;;
20034;SDS011;10178;48.034;9.800;2023-08-01T07:27:38;6.40;;;3.15;;
20034;SDS011;10178;48.034;9.800;2023-08-01T07:30:04;6.22;;;3.55;;
20034;SDS011;10178;48.034;9.800;2023-08-01T07:32:31;4.30;;;3.03;;
20034;SDS011;10178;48.034;9.800;2023-08-01T07:34:57;7.28;;;3.35;;
20034;SDS011;10178;48.034;9.800;2023-08-01T07:37:22;3.08;;;2.60;;
20034;SDS011;10178;48.034;9.800;2023-08-01T07:39:49;5.72;;;3.58;;
20034;SDS011;10178;48.034;9.800;2023-08-01T07:42:15;3.92;;;3.22;;
20034;SDS011;10178;48.034;9.800;2023-08-01T07:44:40;8.38;;;3.25;;
20034;SDS011;10178;48.034;9.800;2023-08-01T07:47:06;5.20;;;3.17;;
20034;SDS011;10178;48.034;9.800;2023-08-01T07:49:32;10.95;;;5.25;;
20034;SDS011;10178;48.034;9.800;2023-08-01T07:51:58;7.88;;;4.22;;
20034;SDS011;10178;48.034;9.800;2023-08-01T07:54:24;6.63;;;3.58;;
20034;SDS011;10178;48.034;9.800;2023-08-01T07:56:49;11.38;;;4.07;;
20034;SDS011;10178;48.034;9.800;2023-08-01T07:59:15;8.27;;;3.90;;
20034;SDS011;10178;48.034;9.800;2023-08-01T08:01:41;5.93;;;3.47;;
20034;SDS011;10178;48.034;9.800;2023-08-01T08:04:07;7.38;;;3.88;;
20034;SDS011;10178;48.034;9.800;2023-08-01T08:06:32;4.78;;;3.53;;
20034;SDS011;10178;48.034;9.800;2023-08-01T08:08:58;4.70;;;3.10;;
20034;SDS011;10178;48.034;9.800;2023-08-01T08:11:24;4.05;;;3.08;;
20034;SDS011;10178;48.034;9.800;2023-08-01T08:13:49;6.38;;;3.47;;
20034;SDS011;10178;48.034;9.800;2023-08-01T08:16:15;5.90;;;3.60;;
20034;SDS011;10178;48.034;9.800;2023-08-01T08:18:41;4.80;;;3.30;;
20034;SDS011;10178;48.034;9.800;2023-08-01T08:21:07;3.97;;;3.40;;
20034;SDS011;10178;48.034;9.800;2023-08-01T08:23:32;4.97;;;3.58;;
20034;SDS011;10178;48.034;9.800;2023-08-01T08:25:58;4.75;;;3.72;;
20034;SDS011;10178;48.034;9.800;2023-08-01T08:28:30;6.13;;;3.60;;
20034;SDS011;10178;48.034;9.800;2023-08-01T08:30:58;4.65;;;3.03;;
20034;SDS011;10178;48.034;9.800;2023-08-01T08:33:24;4.80;;;3.40;;
20034;SDS011;10178;48.034;9.800;2023-08-01T08:35:49;5.70;;;3.45;;
20034;SDS011;10178;48.034;9.800;2023-08-01T08:38:16;5.68;;;3.83;;
20034;SDS011;10178;48.034;9.800;2023-08-01T08:40:43;7.80;;;4.10;;
20034;SDS011;10178;48.034;9.800;2023-08-01T08:43:23;6.80;;;3.67;;
20034;SDS011;10178;48.034;9.800;2023-08-01T08:45:49;6.55;;;3.65;;
20034;SDS011;10178;48.034;9.800;2023-08-01T08:48:18;9.40;;;3.25;;
20034;SDS011;10178;48.034;9.800;2023-08-01T08:50:45;4.95;;;3.58;;
20034;SDS011;10178;48.034;9.800;2023-08-01T08:53:11;5.82;;;4.00;;
20034;SDS011;10178;48.034;9.800;2023-08-01T08:55:41;7.68;;;3.55;;
20034;SDS011;10178;48.034;9.800;2023-08-01T08:58:07;4.28;;;3.22;;
20034;SDS011;10178;48.034;9.800;2023-08-01T09:00:35;7.53;;;3.88;;
20034;SDS011;10178;48.034;9.800;2023-08-01T09:03:02;5.88;;;3.30;;
20034;SDS011;10178;48.034;9.800;2023-08-01T09:05:30;6.95;;;3.92;;
20034;SDS011;10178;48.034;9.800;2023-08-01T09:07:59;4.93;;;3.70;;
20034;SDS011;10178;48.034;9.800;2023-08-01T09:10:30;8.15;;;3.85;;
20034;SDS011;10178;48.034;9.800;2023-08-01T09:12:57;6.70;;;4.28;;
20034;SDS011;10178;48.034;9.800;2023-08-01T09:15:23;6.22;;;3.45;;
20034;SDS011;10178;48.034;9.800;2023-08-01T09:17:54;4.93;;;3.67;;
20034;SDS011;10178;48.034;9.800;2023-08-01T09:20:25;5.35;;;3.55;;
20034;SDS011;10178;48.034;9.800;2023-08-01T09:22:52;7.15;;;3.70;;
20034;SDS011;10178;48.034;9.800;2023-08-01T09:25:18;6.63;;;3.78;;
20034;SDS011;10178;48.034;9.800;2023-08-01T09:27:44;4.68;;;3.22;;
20034;SDS011;10178;48.034;9.800;2023-08-01T09:30:10;6.07;;;3.67;;
20034;SDS011;10178;48.034;9.800;2023-08-01T09:32:39;6.88;;;3.97;;
20034;SDS011;10178;48.034;9.800;2023-08-01T09:35:05;5.75;;;3.90;;
20034;SDS011;10178;48.034;9.800;2023-08-01T09:37:40;5.05;;;3.30;;
20034;SDS011;10178;48.034;9.800;2023-08-01T09:40:07;4.88;;;2.90;;
20034;SDS011;10178;48.034;9.800;2023-08-01T09:42:43;4.88;;;3.28;;
20034;SDS011;10178;48.034;9.800;2023-08-01T09:45:13;6.38;;;3.65;;
20034;SDS011;10178;48.034;9.800;2023-08-01T09:47:40;5.80;;;3.47;;
20034;SDS011;10178;48.034;9.800;2023-08-01T09:50:08;6.28;;;3.88;;
20034;SDS011;10178;48.034;9.800;2023-08-01T09:52:44;6.10;;;3.47;;
20034;SDS011;10178;48.034;9.800;2023-08-01T09:55:17;4.30;;;3.20;;
20034;SDS011;10178;48.034;9.800;2023-08-01T09:57:45;4.28;;;3.25;;
20034;SDS011;10178;48.034;9.800;2023-08-01T10:00:15;4.68;;;3.28;;
20034;SDS011;10178;48.034;9.800;2023-08-01T10:02:40;5.28;;;3.20;;
20034;SDS011;10178;48.034;9.800;2023-08-01T10:05:08;3.67;;;2.90;;
20034;SDS011;10178;48.034;9.800;2023-08-01T10:07:35;5.07;;;3.53;;
20034;SDS011;10178;48.034;9.800;2023-08-01T10:10:06;6.30;;;3.17;;
20034;SDS011;10178;48.034;9.800;2023-08-01T10:12:32;4.25;;;3.30;;
20034;SDS011;10178;48.034;9.800;2023-08-01T10:14:58;5.20;;;3.35;;
20034;SDS011;10178;48.034;9.800;2023-08-01T10:17:25;4.28;;;3.25;;
20034;SDS011;10178;48.034;9.800;2023-08-01T10:19:51;5.72;;;3.45;;
20034;SDS011;10178;48.034;9.800;2023-08-01T10:22:21;3.33;;;3.03;;
20034;SDS011;10178;48.034;9.800;2023-08-01T10:24:47;3.20;;;2.63;;
20034;SDS011;10178;48.034;9.800;2023-08-01T10:27:14;3.80;;;3.05;;
20034;SDS011;10178;48.034;9.800;2023-08-01T10:29:43;6.70;;;3.20;;
20034;SDS011;10178;48.034;9.800;2023-08-01T10:32:09;4.00;;;3.35;;
20034;SDS011;10178;48.034;9.800;2023-08-01T10:34:35;4.40;;;3.00;;
20034;SDS011;10178;48.034;9.800;2023-08-01T10:37:01;5.70;;;3.17;;
20034;SDS011;10178;48.034;9.800;2023-08-01T10:39:28;3.85;;;3.00;;
20034;SDS011;10178;48.034;9.800;2023-08-01T10:41:58;4.97;;;3.08;;
20034;SDS011;10178;48.034;9.800;2023-08-01T10:44:25;5.07;;;2.95;;
20034;SDS011;10178;48.034;9.800;2023-08-01T10:46:52;5.07;;;3.55;;
20034;SDS011;10178;48.034;9.800;2023-08-01T10:49:20;5.38;;;3.58;;
20034;SDS011;10178;48.034;9.800;2023-08-01T10:51:57;6.03;;;3.78;;
20034;SDS011;10178;48.034;9.800;2023-08-01T10:54:23;6.95;;;3.80;;
20034;SDS011;10178;48.034;9.800;2023-08-01T10:56:50;7.00;;;4.07;;
20034;SDS011;10178;48.034;9.800;2023-08-01T10:59:17;5.57;;;3.70;;
20034;SDS011;10178;48.034;9.800;2023-08-01T11:01:44;5.65;;;3.65;;
20034;SDS011;10178;48.034;9.800;2023-08-01T11:04:17;3.67;;;2.90;;
20034;SDS011;10178;48.034;9.800;2023-08-01T11:06:51;5.28;;;3.47;;
20034;SDS011;10178;48.034;9.800;2023-08-01T11:09:19;5.18;;;3.95;;
20034;SDS011;10178;48.034;9.800;2023-08-01T11:11:47;4.18;;;3.17;;
20034;SDS011;10178;48.034;9.800;2023-08-01T11:14:20;5.40;;;3.70;;
20034;SDS011;10178;48.034;9.800;2023-08-01T11:16:54;4.93;;;3.60;;
20034;SDS011;10178;48.034;9.800;2023-08-01T11:21:49;5.40;;;3.83;;
20034;SDS011;10178;48.034;9.800;2023-08-01T11:24:16;5.50;;;3.50;;
20034;SDS011;10178;48.034;9.800;2023-08-01T11:26:52;5.80;;;3.85;;
20034;SDS011;10178;48.034;9.800;2023-08-01T11:29:19;7.47;;;4.38;;
20034;SDS011;10178;48.034;9.800;2023-08-01T11:31:55;5.55;;;4.07;;
20034;SDS011;10178;48.034;9.800;2023-08-01T11:34:23;4.75;;;3.63;;
20034;SDS011;10178;48.034;9.800;2023-08-01T11:36:49;5.65;;;3.90;;
20034;SDS011;10178;48.034;9.800;2023-08-01T11:39:15;5.32;;;4.15;;
20034;SDS011;10178;48.034;9.800;2023-08-01T11:41:42;4.55;;;3.70;;
20034;SDS011;10178;48.034;9.800;2023-08-01T11:44:08;5.05;;;3.38;;
20034;SDS011;10178;48.034;9.800;2023-08-01T11:46:36;5.10;;;3.55;;
20034;SDS011;10178;48.034;9.800;2023-08-01T11:49:02;5.53;;;3.78;;
20034;SDS011;10178;48.034;9.800;2023-08-01T11:51:29;6.68;;;3.90;;
20034;SDS011;10178;48.034;9.800;2023-08-01T11:54:01;4.97;;;3.67;;
20034;SDS011;10178;48.034;9.800;2023-08-01T11:56:28;5.50;;;3.63;;
20034;SDS011;10178;48.034;9.800;2023-08-01T11:58:54;4.05;;;3.63;;
20034;SDS011;10178;48.034;9.800;2023-08-01T12:01:20;3.65;;;3.13;;
20034;SDS011;10178;48.034;9.800;2023-08-01T12:03:47;7.55;;;3.80;;
20034;SDS011;10178;48.034;9.800;2023-08-01T12:06:17;5.05;;;3.50;;
20034;SDS011;10178;48.034;9.800;2023-08-01T12:08:45;3.80;;;3.05;;
20034;SDS011;10178;48.034;9.800;2023-08-01T12:13:48;6.45;;;3.40;;
20034;SDS011;10178;48.034;9.800;2023-08-01T12:16:25;6.15;;;3.47;;
20034;SDS011;10178;48.034;9.800;2023-08-01T12:18:51;6.22;;;4.15;;
20034;SDS011;10178;48.034;9.800;2023-08-01T12:21:16;4.78;;;3.63;;
20034;SDS011;10178;48.034;9.800;2023-08-01T12:23:42;7.53;;;3.85;;
20034;SDS011;10178;48.034;9.800;2023-08-01T12:26:08;5.90;;;3.20;;
20034;SDS011;10178;48.034;9.800;2023-08-01T12:28:34;4.85;;;3.38;;
20034;SDS011;10178;48.034;9.800;2023-08-01T12:31:00;4.03;;;2.88;;
20034;SDS011;10178;48.034;9.800;2023-08-01T12:33:25;5.32;;;2.95;;
20034;SDS011;10178;48.034;9.800;2023-08-01T12:35:51;3.80;;;3.05;;
20034;SDS011;10178;48.034;9.800;2023-08-01T12:38:16;4.20;;;3.03;;
20034;SDS011;10178;48.034;9.800;2023-08-01T12:40:42;6.68;;;2.90;;
20034;SDS011;10178;48.034;9.800;2023-08-01T12:43:07;3.63;;;2.80;;
20034;SDS011;10178;48.034;9.800;2023-08-01T12:45:33;4.15;;;2.58;;
20034;SDS011;10178;48.034;9.800;2023-08-01T12:47:59;5.50;;;3.10;;
20034;SDS011;10178;48.034;9.800;2023-08-01T12:50:24;5.70;;;2.58;;
20034;SDS011;10178;48.034;9.800;2023-08-01T12:52:50;3.75;;;2.70;;
20034;SDS011;10178;48.034;9.800;2023-08-01T12:55:15;2.95;;;2.33;;
20034;SDS011;10178;48.034;9.800;2023-08-01T12:57:41;3.67;;;2.95;;
20034;SDS011;10178;48.034;9.800;2023-08-01T13:00:08;2.53;;;2.33;;
20034;SDS011;10178;48.034;9.800;2023-08-01T13:02:35;2.92;;;2.60;;
20034;SDS011;10178;48.034;9.800;2023-08-01T13:05:02;3.42;;;2.17;;
20034;SDS011;10178;48.034;9.800;2023-08-01T13:07:28;2.30;;;1.80;;
20034;SDS011;10178;48.034;9.800;2023-08-01T13:09:56;3.63;;;1.92;;
20034;SDS011;10178;48.034;9.800;2023-08-01T13:12:22;2.53;;;2.28;;
20034;SDS011;10178;48.034;9.800;2023-08-01T13:14:47;2.58;;;2.20;;
20034;SDS011;10178;48.034;9.800;2023-08-01T13:17:13;12.23;;;2.28;;
20034;SDS011;10178;48.034;9.800;2023-08-01T13:19:39;7.72;;;2.40;;
20034;SDS011;10178;48.034;9.800;2023-08-01T13:22:05;3.28;;;2.10;;
20034;SDS011;10178;48.034;9.800;2023-08-01T13:24:30;6.25;;;1.00;;
20034;SDS011;10178;48.034;9.800;2023-08-01T13:26:57;6.05;;;1.90;;
20034;SDS011;10178;48.034;9.800;2023-08-01T13:29:23;3.38;;;0.50;;
20034;SDS011;10178;48.034;9.800;2023-08-01T13:31:48;2.85;;;1.15;;
20034;SDS011;10178;48.034;9.800;2023-08-01T13:34:14;10.02;;;0.70;;
20034;SDS011;10178;48.034;9.800;2023-08-01T13:36:40;3.85;;;1.55;;
20034;SDS011;10178;48.034;9.800;2023-08-01T13:39:06;7.22;;;1.55;;
20034;SDS011;10178;48.034;9.800;2023-08-01T13:41:32;5.82;;;1.70;;
20034;SDS011;10178;48.034;9.800;2023-08-01T13:43:58;1.33;;;0.93;;
20034;SDS011;10178;48.034;9.800;2023-08-01T13:46:24;3.08;;;1.00;;
20034;SDS011;10178;48.034;9.800;2023-08-01T13:48:49;1.70;;;0.90;;
20034;SDS011;10178;48.034;9.800;2023-08-01T13:51:15;3.33;;;0.80;;
20034;SDS011;10178;48.034;9.800;2023-08-01T13:53:40;1.42;;;0.98;;
20034;SDS011;10178;48.034;9.800;2023-08-01T13:56:07;1.55;;;0.82;;
20034;SDS011;10178;48.034;9.800;2023-08-01T13:58:33;1.33;;;0.90;;
20034;SDS011;10178;48.034;9.800;2023-08-01T14:01:03;4.97;;;0.80;;
20034;SDS011;10178;48.034;9.800;2023-08-01T14:03:29;1.15;;;0.65;;
20034;SDS011;10178;48.034;9.800;2023-08-01T14:05:56;1.85;;;0.90;;
20034;SDS011;10178;48.034;9.800;2023-08-01T14:08:27;2.20;;;0.90;;
20034;SDS011;10178;48.034;9.800;2023-08-01T14:10:53;2.30;;;1.25;;
20034;SDS011;10178;48.034;9.800;2023-08-01T14:13:18;1.63;;;0.80;;
20034;SDS011;10178;48.034;9.800;2023-08-01T14:15:44;2.20;;;0.90;;
20034;SDS011;10178;48.034;9.800;2023-08-01T14:18:10;2.97;;;0.88;;
20034;SDS011;10178;48.034;9.800;2023-08-01T14:20:35;1.08;;;0.60;;
20034;SDS011;10178;48.034;9.800;2023-08-01T14:23:01;1.73;;;0.93;;
20034;SDS011;10178;48.034;9.800;2023-08-01T14:25:26;1.88;;;0.73;;
20034;SDS011;10178;48.034;9.800;2023-08-01T14:27:52;0.60;;;0.60;;
20034;SDS011;10178;48.034;9.800;2023-08-01T14:30:17;1.02;;;0.70;;
20034;SDS011;10178;48.034;9.800;2023-08-01T14:32:43;1.20;;;1.10;;
20034;SDS011;10178;48.034;9.800;2023-08-01T14:35:09;1.52;;;0.70;;
20034;SDS011;10178;48.034;9.800;2023-08-01T14:37:35;10.27;;;0.77;;
20034;SDS011;10178;48.034;9.800;2023-08-01T14:40:01;0.70;;;0.70;;
20034;SDS011;10178;48.034;9.800;2023-08-01T14:42:28;0.70;;;0.63;;
20034;SDS011;10178;48.034;9.800;2023-08-01T14:44:53;1.23;;;0.68;;
20034;SDS011;10178;48.034;9.800;2023-08-01T14:47:19;0.82;;;0.60;;